Time;durP1;ratioP1;P1;durP2;ratioP2;P2;SDS_P1;SDS_P2;PMS_P1;PMS_P2;Temp;Humidity;BMP_temperature;BMP_pressure;BME280_temperature;BME280_humidity;BME280_pressure;Samples;Min_cycle;Max_cycle;Signal;HPM_P1;HPM_P2
2023/07/18 00:00:55;;;;;;;1.73;0.70;;;;;20.90;101956.00;;;;5008794;28;20759;-82
2023/07/18 00:03:23;;;;;;;1.02;0.77;;;;;20.90;101953.00;;;;5008837;28;20204;-82
2023/07/18 00:05:50;;;;;;;2.22;1.10;;;;;20.90;101952.00;;;;5009777;28;20239;-82
2023/07/18 00:08:19;;;;;;;2.58;0.90;;;;;20.90;101952.00;;;;5008813;28;20208;-82
2023/07/18 00:10:46;;;;;;;0.70;0.40;;;;;20.90;101961.00;;;;5009147;28;20221;-82
2023/07/18 00:13:14;;;;;;;2.97;0.80;;;;;20.90;101948.00;;;;5009417;28;20561;-82
2023/07/18 00:15:41;;;;;;;3.22;0.60;;;;;20.90;101949.00;;;;5009285;28;20745;-82
2023/07/18 00:18:09;;;;;;;1.75;0.73;;;;;20.90;101951.00;;;;5009187;28;20212;-82
2023/07/18 00:20:36;;;;;;;3.25;0.68;;;;;20.90;101954.00;;;;5009105;28;20600;-82
2023/07/18 00:23:03;;;;;;;1.73;0.75;;;;;20.90;101945.00;;;;5008641;28;20689;-82
2023/07/18 00:25:32;;;;;;;2.05;0.70;;;;;20.80;101951.00;;;;5007947;28;20224;-82
2023/07/18 00:27:59;;;;;;;2.72;0.85;;;;;20.80;101942.00;;;;5009043;28;20204;-82
2023/07/18 00:30:27;;;;;;;1.65;0.60;;;;;20.80;101941.00;;;;4988978;28;20671;-82
2023/07/18 00:32:54;;;;;;;2.45;0.85;;;;;20.80;101933.00;;;;4988985;28;20240;-82
2023/07/18 00:35:22;;;;;;;1.98;0.65;;;;;20.80;101933.00;;;;4989232;28;20200;-82
2023/07/18 00:37:50;;;;;;;1.35;0.70;;;;;20.80;101940.00;;;;4989504;28;20675;-82
2023/07/18 00:40:17;;;;;;;3.08;0.90;;;;;20.80;101948.00;;;;4989128;28;20216;-82
2023/07/18 00:42:48;;;;;;;2.92;0.75;;;;;20.70;101945.00;;;;4989623;28;20212;-82
2023/07/18 00:45:15;;;;;;;2.63;0.77;;;;;20.70;101946.00;;;;4991074;28;20240;-82
2023/07/18 00:47:44;;;;;;;1.27;0.85;;;;;20.70;101946.00;;;;5009082;28;20208;-82
2023/07/18 00:50:15;;;;;;;2.85;0.85;;;;;20.70;101940.00;;;;5008153;28;20516;-81
2023/07/18 00:52:46;;;;;;;1.40;0.95;;;;;20.70;101949.00;;;;5009179;28;20235;-82
2023/07/18 00:55:14;;;;;;;1.00;0.60;;;;;20.70;101946.00;;;;5008401;28;20208;-81
2023/07/18 00:57:44;;;;;;;1.67;0.60;;;;;20.60;101942.00;;;;5008518;28;20208;-82
2023/07/18 01:00:14;;;;;;;2.75;0.65;;;;;20.60;101947.00;;;;5007735;28;20244;-82
2023/07/18 01:02:43;;;;;;;3.25;0.70;;;;;20.60;101948.00;;;;5008780;28;20660;-82
2023/07/18 01:05:16;;;;;;;1.63;0.80;;;;;20.60;101939.00;;;;5008072;28;20208;-82
2023/07/18 01:07:44;;;;;;;1.27;0.77;;;;;20.60;101941.00;;;;5008586;28;20213;-82
2023/07/18 01:10:16;;;;;;;2.05;0.68;;;;;20.50;101941.00;;;;5008403;28;20216;-82
2023/07/18 01:12:44;;;;;;;3.58;1.40;;;;;20.50;101945.00;;;;5008370;28;20675;-82
2023/07/18 01:15:13;;;;;;;1.17;0.68;;;;;20.50;101947.00;;;;5008405;28;20192;-82
2023/07/18 01:17:45;;;;;;;1.67;0.60;;;;;20.50;101938.00;;;;5008157;28;20533;-82
2023/07/18 01:20:16;;;;;;;1.77;0.80;;;;;20.50;101940.00;;;;5007430;28;20209;-82
2023/07/18 01:22:45;;;;;;;2.10;1.10;;;;;20.40;101944.00;;;;5008396;28;20959;-82
2023/07/18 01:25:16;;;;;;;3.10;0.85;;;;;20.50;101939.00;;;;5008161;28;20205;-82
2023/07/18 01:27:43;;;;;;;1.95;0.80;;;;;20.40;101944.00;;;;5008029;28;20230;-82
2023/07/18 01:30:11;;;;;;;1.77;0.90;;;;;20.40;101940.00;;;;5007988;28;20197;-82
2023/07/18 01:32:39;;;;;;;3.05;0.85;;;;;20.40;101943.00;;;;5008019;28;20200;-82
2023/07/18 01:35:08;;;;;;;1.13;0.40;;;;;20.40;101940.00;;;;5008415;28;20208;-82
2023/07/18 01:37:37;;;;;;;1.25;0.70;;;;;20.40;101941.00;;;;5007172;28;20240;-82
2023/07/18 01:40:12;;;;;;;1.88;0.80;;;;;20.30;101930.00;;;;5008193;28;20800;-82
2023/07/18 01:42:39;;;;;;;2.13;1.55;;;;;20.30;101929.00;;;;5007716;28;20284;-82
2023/07/18 01:45:07;;;;;;;4.18;0.80;;;;;20.30;101921.00;;;;5007930;28;20739;-82
2023/07/18 01:47:35;;;;;;;2.10;1.33;;;;;20.30;101913.00;;;;5008130;28;20235;-82
2023/07/18 01:50:04;;;;;;;2.25;0.85;;;;;20.20;101919.00;;;;5011707;28;20683;-82
2023/07/18 01:52:32;;;;;;;2.47;0.80;;;;;20.20;101916.00;;;;5011568;28;20205;-82
2023/07/18 01:55:00;;;;;;;3.28;0.95;;;;;20.20;101920.00;;;;5011345;28;20212;-82
2023/07/18 01:57:31;;;;;;;1.42;0.85;;;;;20.20;101919.00;;;;5010031;28;20201;-82
2023/07/18 01:59:59;;;;;;;2.42;1.00;;;;;20.20;101925.00;;;;5011014;28;20243;-82
2023/07/18 02:02:28;;;;;;;1.65;0.77;;;;;20.20;101923.00;;;;5011079;28;20236;-82
2023/07/18 02:04:56;;;;;;;2.45;0.90;;;;;20.20;101919.00;;;;5011597;28;20702;-82
2023/07/18 02:07:23;;;;;;;3.17;1.08;;;;;20.20;101916.00;;;;5011024;28;20221;-82
2023/07/18 02:09:50;;;;;;;2.17;1.00;;;;;20.10;101918.00;;;;5011242;28;20197;-82
2023/07/18 02:12:19;;;;;;;2.17;1.13;;;;;20.10;101907.00;;;;5011151;28;20209;-82
2023/07/18 02:14:47;;;;;;;2.13;0.85;;;;;20.10;101899.00;;;;5011400;28;20209;-82
2023/07/18 02:17:15;;;;;;;1.45;0.80;;;;;20.10;101902.00;;;;5010175;28;20703;-82
2023/07/18 02:19:42;;;;;;;1.15;0.85;;;;;20.10;101901.00;;;;5011525;28;20566;-82
2023/07/18 02:22:09;;;;;;;1.80;0.82;;;;;20.10;101908.00;;;;5010528;28;20698;-82
2023/07/18 02:24:37;;;;;;;1.17;0.90;;;;;20.10;101903.00;;;;5011018;28;20208;-82
2023/07/18 02:27:05;;;;;;;2.05;0.98;;;;;20.10;101908.00;;;;5005112;28;20566;-82
2023/07/18 02:29:33;;;;;;;2.08;0.93;;;;;20.00;101908.00;;;;4995380;28;20193;-82
2023/07/18 02:32:02;;;;;;;5.80;0.80;;;;;20.00;101904.00;;;;5010752;28;20560;-82
2023/07/18 02:34:29;;;;;;;2.55;0.98;;;;;20.00;101904.00;;;;5010878;28;20205;-82
2023/07/18 02:36:57;;;;;;;2.45;1.13;;;;;20.00;101904.00;;;;5011340;28;20209;-82
2023/07/18 02:39:24;;;;;;;1.15;0.82;;;;;20.00;101903.00;;;;5009038;28;20201;-82
2023/07/18 02:41:51;;;;;;;1.77;1.02;;;;;20.00;101903.00;;;;4974143;28;20789;-82
2023/07/18 02:44:18;;;;;;;2.25;0.82;;;;;20.00;101905.00;;;;4993338;28;20217;-82
2023/07/18 02:46:45;;;;;;;2.60;1.35;;;;;19.90;101898.00;;;;5011363;28;20228;-82
2023/07/18 02:49:14;;;;;;;1.40;0.85;;;;;19.90;101896.00;;;;5010353;28;20201;-82
2023/07/18 02:51:41;;;;;;;1.52;1.00;;;;;19.90;101891.00;;;;5011024;28;20697;-82
2023/07/18 02:54:08;;;;;;;4.00;1.23;;;;;19.90;101893.00;;;;5010191;28;20220;-82
2023/07/18 02:56:36;;;;;;;1.98;0.80;;;;;19.90;101889.00;;;;5010081;28;20204;-82
2023/07/18 02:59:03;;;;;;;1.70;0.85;;;;;19.90;101886.00;;;;5010104;28;20239;-82
2023/07/18 03:01:30;;;;;;;3.17;1.15;;;;;19.90;101884.00;;;;5009263;28;20228;-82
2023/07/18 03:03:59;;;;;;;2.83;0.88;;;;;19.80;101889.00;;;;5010626;28;20873;-82
2023/07/18 03:06:28;;;;;;;2.60;1.15;;;;;19.80;101896.00;;;;5010621;28;20313;-82
2023/07/18 03:08:55;;;;;;;1.77;1.00;;;;;19.80;101891.00;;;;5010441;28;20751;-82
2023/07/18 03:11:22;;;;;;;1.05;0.77;;;;;19.80;101897.00;;;;5010580;28;20263;-82
2023/07/18 03:13:49;;;;;;;2.15;1.10;;;;;19.80;101894.00;;;;5010536;28;20196;-82
2023/07/18 03:16:17;;;;;;;2.15;0.90;;;;;19.80;101899.00;;;;5009974;28;20201;-82
2023/07/18 03:18:44;;;;;;;2.35;1.27;;;;;19.80;101904.00;;;;5009490;28;20223;-82
2023/07/18 03:21:11;;;;;;;2.33;1.08;;;;;19.70;101899.00;;;;5010104;28;20205;-82
2023/07/18 03:23:40;;;;;;;2.95;1.27;;;;;19.70;101900.00;;;;5009959;28;20695;-82
2023/07/18 03:26:07;;;;;;;2.42;1.00;;;;;19.70;101910.00;;;;5009843;28;20193;-82
2023/07/18 03:28:34;;;;;;;1.27;1.08;;;;;19.70;101909.00;;;;5010027;28;20204;-82
2023/07/18 03:31:02;;;;;;;3.65;1.40;;;;;19.70;101912.00;;;;5008962;28;20208;-82
2023/07/18 03:33:30;;;;;;;4.32;1.20;;;;;19.70;101911.00;;;;5009942;28;20205;-82
2023/07/18 03:35:59;;;;;;;1.85;1.00;;;;;19.70;101918.00;;;;5010066;28;20204;-82
2023/07/18 03:38:26;;;;;;;2.85;1.10;;;;;19.70;101917.00;;;;5009888;28;20192;-82
2023/07/18 03:40:55;;;;;;;3.40;1.08;;;;;19.60;101903.00;;;;5009991;28;20781;-82
2023/07/18 03:43:22;;;;;;;1.77;1.00;;;;;19.60;101910.00;;;;5009352;28;20208;-82
2023/07/18 03:45:50;;;;;;;2.65;1.27;;;;;19.60;101904.00;;;;5009450;28;20693;-82
2023/07/18 03:48:17;;;;;;;3.60;1.30;;;;;19.60;101915.00;;;;5009295;28;20296;-82
2023/07/18 03:50:45;;;;;;;3.28;1.38;;;;;19.60;101911.00;;;;5009630;28;20200;-82
2023/07/18 03:53:12;;;;;;;1.30;0.90;;;;;19.60;101907.00;;;;5009634;28;20208;-82
2023/07/18 03:55:40;;;;;;;2.70;1.17;;;;;19.60;101901.00;;;;5009442;28;20219;-82
2023/07/18 03:58:08;;;;;;;3.03;1.48;;;;;19.60;101902.00;;;;5009180;28;20208;-82
2023/07/18 04:00:36;;;;;;;2.17;1.30;;;;;19.60;101899.00;;;;5009227;28;20236;-82
2023/07/18 04:03:03;;;;;;;2.50;0.98;;;;;19.60;101897.00;;;;5009706;28;20193;-82
2023/07/18 04:05:30;;;;;;;2.90;1.23;;;;;19.60;101896.00;;;;5009536;28;20216;-82
2023/07/18 04:07:58;;;;;;;3.10;1.15;;;;;19.60;101897.00;;;;5008849;28;20563;-82
2023/07/18 04:10:25;;;;;;;2.60;1.33;;;;;19.60;101902.00;;;;5009280;28;20768;-82
2023/07/18 04:12:52;;;;;;;3.70;1.13;;;;;19.60;101901.00;;;;5009250;28;20226;-82
2023/07/18 04:15:21;;;;;;;4.00;1.52;;;;;19.60;101901.00;;;;5008381;28;20203;-82
2023/07/18 04:17:48;;;;;;;1.92;1.10;;;;;19.60;101896.00;;;;5009457;28;20215;-82
2023/07/18 04:20:19;;;;;;;2.83;1.00;;;;;19.50;101891.00;;;;5008860;28;20204;-82
2023/07/18 04:22:46;;;;;;;2.80;1.02;;;;;19.50;101884.00;;;;5009183;28;20208;-82
2023/07/18 04:25:14;;;;;;;2.40;0.98;;;;;19.50;101879.00;;;;5009011;28;20259;-82
2023/07/18 04:27:41;;;;;;;2.70;1.27;;;;;19.60;101878.00;;;;5007952;28;20251;-82
2023/07/18 04:30:10;;;;;;;1.75;1.13;;;;;19.60;101877.00;;;;5008641;28;20693;-82
2023/07/18 04:32:40;;;;;;;1.83;1.38;;;;;19.50;101882.00;;;;5008600;28;20213;-82
2023/07/18 04:35:08;;;;;;;4.47;1.20;;;;;19.60;101881.00;;;;5008560;28;20212;-82
2023/07/18 04:37:35;;;;;;;3.55;1.27;;;;;19.60;101876.00;;;;5008736;28;20203;-82
2023/07/18 04:40:05;;;;;;;5.65;1.65;;;;;19.60;101880.00;;;;5008759;28;20201;-82
2023/07/18 04:42:33;;;;;;;3.05;1.30;;;;;19.60;101880.00;;;;5007835;28;20677;-82
2023/07/18 04:45:00;;;;;;;3.30;1.33;;;;;19.60;101876.00;;;;5007643;28;20236;-82
2023/07/18 04:47:28;;;;;;;4.50;1.45;;;;;19.70;101881.00;;;;5008329;28;20247;-82
2023/07/18 04:49:57;;;;;;;2.58;1.02;;;;;19.70;101883.00;;;;5009024;28;20197;-82
2023/07/18 04:52:25;;;;;;;1.85;1.20;;;;;19.70;101882.00;;;;5008542;28;20212;-82
2023/07/18 04:54:52;;;;;;;1.90;1.45;;;;;19.70;101872.00;;;;5009063;28;20201;-82
2023/07/18 04:57:21;;;;;;;2.08;1.25;;;;;19.80;101870.00;;;;5007309;28;20224;-82
2023/07/18 04:59:48;;;;;;;1.80;1.00;;;;;19.80;101865.00;;;;5008493;28;20232;-82
2023/07/18 05:02:15;;;;;;;2.65;1.08;;;;;19.80;101879.00;;;;5008587;28;20580;-82
2023/07/18 05:04:42;;;;;;;2.83;1.40;;;;;19.90;101871.00;;;;5008382;28;20205;-82
2023/07/18 05:07:11;;;;;;;2.30;1.13;;;;;19.90;101870.00;;;;5007963;28;20582;-82
2023/07/18 05:09:38;;;;;;;4.15;1.60;;;;;20.00;101865.00;;;;5008627;28;20204;-82
2023/07/18 05:12:07;;;;;;;2.65;1.02;;;;;20.00;101871.00;;;;5008157;28;20208;-82
2023/07/18 05:14:34;;;;;;;1.90;1.50;;;;;20.10;101871.00;;;;5008386;28;20201;-82
2023/07/18 05:17:01;;;;;;;4.07;1.40;;;;;20.10;101865.00;;;;5008034;28;20204;-82
2023/07/18 05:19:28;;;;;;;3.08;1.70;;;;;20.20;101870.00;;;;5007931;28;20207;-82
2023/07/18 05:21:56;;;;;;;2.90;1.35;;;;;20.20;101873.00;;;;5007240;28;20208;-82
2023/07/18 05:24:24;;;;;;;3.15;1.60;;;;;20.30;101873.00;;;;5010660;28;20228;-82
2023/07/18 05:26:52;;;;;;;4.18;2.15;;;;;20.30;101870.00;;;;5012443;28;20216;-82
2023/07/18 05:29:20;;;;;;;3.13;1.75;;;;;20.40;101869.00;;;;5012768;28;20532;-82
2023/07/18 05:31:47;;;;;;;3.40;1.48;;;;;20.40;101864.00;;;;5032140;28;20200;-82
2023/07/18 05:34:14;;;;;;;2.90;1.95;;;;;20.50;101860.00;;;;5027958;28;20209;-82
2023/07/18 05:36:41;;;;;;;2.50;1.35;;;;;20.50;101855.00;;;;5011825;28;20212;-82
2023/07/18 05:39:09;;;;;;;2.08;1.55;;;;;20.60;101857.00;;;;5012178;28;20199;-82
2023/07/18 05:41:37;;;;;;;4.07;2.35;;;;;20.70;101858.00;;;;5011334;28;20207;-82
2023/07/18 05:44:05;;;;;;;4.15;1.60;;;;;20.70;101863.00;;;;5012033;28;20197;-82
2023/07/18 05:46:32;;;;;;;3.55;1.92;;;;;20.80;101864.00;;;;5011928;28;20212;-83
2023/07/18 05:48:59;;;;;;;3.20;2.08;;;;;20.80;101861.00;;;;5011869;28;20236;-82
2023/07/18 05:51:26;;;;;;;2.65;1.48;;;;;20.90;101858.00;;;;5011828;28;20673;-82
2023/07/18 05:53:54;;;;;;;4.68;2.33;;;;;21.00;101863.00;;;;5011670;28;20196;-82
2023/07/18 05:56:22;;;;;;;2.15;1.60;;;;;21.00;101859.00;;;;5003014;28;20224;-83
2023/07/18 05:58:50;;;;;;;2.58;2.00;;;;;21.10;101857.00;;;;5011527;28;20201;-82
2023/07/18 06:01:17;;;;;;;3.08;1.90;;;;;21.10;101860.00;;;;5011094;28;20252;-82
2023/07/18 06:03:45;;;;;;;2.72;1.95;;;;;21.20;101869.00;;;;5012055;28;20200;-82
2023/07/18 06:06:12;;;;;;;5.90;1.77;;;;;21.30;101872.00;;;;5010580;28;20193;-83
2023/07/18 06:08:39;;;;;;;3.15;1.70;;;;;21.30;101874.00;;;;5011302;28;20710;-83
2023/07/18 06:11:06;;;;;;;5.72;2.00;;;;;21.40;101877.00;;;;5011386;28;20209;-83
2023/07/18 06:13:34;;;;;;;3.10;1.90;;;;;21.50;101877.00;;;;5011437;28;20205;-82
2023/07/18 06:16:04;;;;;;;3.55;1.73;;;;;21.50;101877.00;;;;5010927;28;20654;-82
2023/07/18 06:18:31;;;;;;;3.00;1.70;;;;;21.60;101886.00;;;;5010308;28;20260;-82
2023/07/18 06:20:59;;;;;;;6.47;2.03;;;;;21.70;101888.00;;;;5011087;28;20205;-83
2023/07/18 06:23:28;;;;;;;5.10;1.90;;;;;21.80;101888.00;;;;5011073;28;20624;-83
2023/07/18 06:25:55;;;;;;;2.80;1.40;;;;;21.80;101888.00;;;;5010705;28;20205;-83
2023/07/18 06:28:23;;;;;;;5.13;2.20;;;;;21.90;101882.00;;;;5010567;28;20228;-83
2023/07/18 06:30:54;;;;;;;3.92;1.70;;;;;22.00;101889.00;;;;5011501;28;20662;-82
2023/07/18 06:33:22;;;;;;;3.53;1.95;;;;;22.10;101892.00;;;;5010292;28;20285;-83
2023/07/18 06:35:52;;;;;;;7.63;2.10;;;;;22.10;101882.00;;;;5010806;28;20679;-82
2023/07/18 06:38:20;;;;;;;3.70;1.92;;;;;22.20;101891.00;;;;5010725;28;20201;-82
2023/07/18 06:40:47;;;;;;;4.78;2.33;;;;;22.30;101887.00;;;;5010145;28;20201;-83
2023/07/18 06:43:15;;;;;;;3.60;1.80;;;;;22.40;101883.00;;;;5010012;28;20205;-82
2023/07/18 06:45:44;;;;;;;4.85;2.13;;;;;22.40;101883.00;;;;5010904;28;20201;-83
2023/07/18 06:48:12;;;;;;;3.55;1.55;;;;;22.60;101888.00;;;;5010103;28;20228;-84
2023/07/18 06:50:45;;;;;;;6.00;1.90;;;;;22.60;101878.00;;;;5010443;28;20212;-82
2023/07/18 06:53:12;;;;;;;4.35;1.90;;;;;22.70;101881.00;;;;5010408;28;20212;-82
2023/07/18 06:55:41;;;;;;;4.85;1.77;;;;;22.80;101883.00;;;;5010726;28;20200;-82
2023/07/18 06:58:09;;;;;;;3.92;1.60;;;;;22.90;101891.00;;;;5009733;28;20197;-82
2023/07/18 07:00:36;;;;;;;5.60;2.35;;;;;23.00;101888.00;;;;5009672;28;20264;-82
2023/07/18 07:03:04;;;;;;;3.13;1.63;;;;;23.00;101885.00;;;;5010223;28;20201;-83
2023/07/18 07:05:31;;;;;;;3.88;1.75;;;;;23.10;101881.00;;;;5010153;28;20666;-82
2023/07/18 07:08:00;;;;;;;8.15;2.28;;;;;23.10;101887.00;;;;5010435;28;20225;-82
2023/07/18 07:10:27;;;;;;;5.78;2.45;;;;;23.20;101880.00;;;;5009363;28;20209;-82
2023/07/18 07:12:55;;;;;;;3.38;1.58;;;;;23.20;101881.00;;;;5009578;28;20670;-83
2023/07/18 07:15:22;;;;;;;9.88;2.63;;;;;23.30;101882.00;;;;5010183;28;20205;-82
2023/07/18 07:17:49;;;;;;;6.20;2.15;;;;;23.40;101883.00;;;;5010159;28;20201;-82
2023/07/18 07:20:19;;;;;;;4.78;1.80;;;;;23.50;101878.00;;;;5009099;28;20212;-84
2023/07/18 07:22:47;;;;;;;2.60;1.77;;;;;23.50;101873.00;;;;5010041;28;20217;-82
2023/07/18 07:25:16;;;;;;;7.70;2.63;;;;;23.60;101869.00;;;;5009887;28;20280;-82
2023/07/18 07:27:46;;;;;;;6.30;1.95;;;;;23.70;101871.00;;;;5009630;28;20232;-84
2023/07/18 07:30:15;;;;;;;3.33;1.77;;;;;23.70;101865.00;;;;5009460;28;20216;-83
2023/07/18 07:32:43;;;;;;;4.13;2.20;;;;;23.80;101871.00;;;;5009491;28;20311;-83
2023/07/18 07:35:11;;;;;;;6.15;2.13;;;;;23.90;101870.00;;;;4992704;28;20241;-83
2023/07/18 07:37:40;;;;;;;5.88;1.70;;;;;24.00;101869.00;;;;5009753;28;20697;-83
2023/07/18 07:40:11;;;;;;;6.15;2.10;;;;;24.00;101858.00;;;;5009366;28;20208;-82
2023/07/18 07:42:40;;;;;;;3.90;1.75;;;;;24.10;101860.00;;;;5008829;28;20209;-81
2023/07/18 07:45:08;;;;;;;5.53;1.80;;;;;24.20;101860.00;;;;5009197;28;20193;-83
2023/07/18 07:47:36;;;;;;;3.70;2.30;;;;;24.20;101869.00;;;;5008620;28;20197;-83
2023/07/18 07:50:05;;;;;;;3.17;1.67;;;;;24.30;101863.00;;;;5009189;28;20201;-83
2023/07/18 07:52:32;;;;;;;3.85;1.75;;;;;24.40;101857.00;;;;5009601;28;20201;-83
2023/07/18 07:55:00;;;;;;;4.35;1.98;;;;;24.40;101852.00;;;;5009209;28;20733;-83
2023/07/18 07:57:28;;;;;;;9.73;2.28;;;;;24.50;101858.00;;;;5008710;28;20209;-83
2023/07/18 07:59:56;;;;;;;3.35;1.65;;;;;24.60;101842.00;;;;5009380;28;20279;-83
2023/07/18 08:02:23;;;;;;;5.80;2.17;;;;;24.70;101845.00;;;;5009073;28;20734;-84
2023/07/18 08:04:51;;;;;;;4.90;1.27;;;;;24.80;101843.00;;;;5008446;28;20600;-84
2023/07/18 08:07:19;;;;;;;4.40;1.90;;;;;24.80;101842.00;;;;5008721;28;20205;-82
2023/07/18 08:09:47;;;;;;;5.32;1.95;;;;;24.90;101839.00;;;;5009005;28;20225;-83
2023/07/18 08:12:14;;;;;;;3.13;1.77;;;;;25.00;101829.00;;;;5008658;28;20200;-83
2023/07/18 08:14:42;;;;;;;3.70;1.25;;;;;25.10;101832.00;;;;5009009;28;20213;-83
2023/07/18 08:17:10;;;;;;;5.55;2.10;;;;;25.20;101834.00;;;;5008916;28;20212;-83
2023/07/18 08:19:38;;;;;;;4.40;1.80;;;;;25.30;101844.00;;;;5009121;28;20201;-83
2023/07/18 08:22:05;;;;;;;4.35;2.08;;;;;25.40;101840.00;;;;5008529;28;20201;-83
2023/07/18 08:24:32;;;;;;;3.30;1.77;;;;;25.50;101849.00;;;;5007379;28;20236;-83
2023/07/18 08:27:00;;;;;;;6.22;2.53;;;;;25.60;101847.00;;;;5009014;28;20204;-84
2023/07/18 08:29:29;;;;;;;4.50;2.00;;;;;25.70;101849.00;;;;5008609;28;20231;-84
2023/07/18 08:31:58;;;;;;;7.00;2.00;;;;;25.80;101847.00;;;;5023403;28;20204;-83
2023/07/18 08:34:27;;;;;;;5.22;1.35;;;;;25.90;101847.00;;;;5027427;28;20211;-82
2023/07/18 08:36:54;;;;;;;5.57;2.30;;;;;26.00;101848.00;;;;5029174;28;20204;-83
2023/07/18 08:39:21;;;;;;;4.15;1.77;;;;;26.10;101846.00;;;;5028711;28;20700;-83
2023/07/18 08:41:51;;;;;;;6.53;1.48;;;;;26.20;101851.00;;;;5021203;28;20219;-83
2023/07/18 08:44:20;;;;;;;3.28;1.55;;;;;26.30;101846.00;;;;5008552;28;20205;-81
2023/07/18 08:46:48;;;;;;;3.78;2.10;;;;;26.40;101847.00;;;;5009254;28;20204;-83
2023/07/18 08:49:17;;;;;;;3.53;1.67;;;;;26.50;101843.00;;;;5008735;28;20698;-82
2023/07/18 08:51:48;;;;;;;3.28;1.42;;;;;26.50;101847.00;;;;5009106;28;20193;-84
2023/07/18 08:54:16;;;;;;;7.22;1.63;;;;;26.60;101843.00;;;;5008654;28;20203;-84
2023/07/18 08:56:43;;;;;;;4.53;1.52;;;;;26.60;101838.00;;;;5008939;28;20251;-83
2023/07/18 08:59:11;;;;;;;3.50;1.20;;;;;26.70;101837.00;;;;5008341;28;20651;-82
2023/07/18 09:01:47;;;;;;;3.60;1.20;;;;;26.70;101836.00;;;;5008616;28;20216;-83
2023/07/18 09:04:14;;;;;;;3.53;1.38;;;;;26.90;101836.00;;;;5008507;28;20246;-83
2023/07/18 09:06:48;;;;;;;6.40;1.85;;;;;26.90;101834.00;;;;5009094;28;20551;-83
2023/07/18 09:09:17;;;;;;;5.15;1.65;;;;;27.00;101824.00;;;;5008747;28;20700;-83
2023/07/18 09:11:55;;;;;;;3.88;1.42;;;;;27.00;101823.00;;;;5008731;28;20208;-83
2023/07/18 09:14:27;;;;;;;5.78;1.08;;;;;27.10;101826.00;;;;5008227;28;20255;-84
2023/07/18 09:16:55;;;;;;;1.83;1.20;;;;;27.20;101832.00;;;;5006954;28;20216;-84
2023/07/18 09:19:39;;;;;;;2.72;1.25;;;;;27.20;101822.00;;;;5007561;28;20685;-84
2023/07/18 09:22:09;;;;;;;2.78;1.30;;;;;27.30;101824.00;;;;5006633;28;20578;-85
2023/07/18 09:24:37;;;;;;;3.25;1.15;;;;;27.40;101826.00;;;;5007967;28;20196;-84
2023/07/18 09:27:05;;;;;;;3.42;1.23;;;;;27.50;101826.00;;;;5008310;28;20208;-84
2023/07/18 09:29:33;;;;;;;3.53;1.65;;;;;27.60;101825.00;;;;5007278;28;20224;-85
2023/07/18 09:32:00;;;;;;;5.03;1.70;;;;;27.60;101823.00;;;;5008493;28;20212;-84
2023/07/18 09:34:28;;;;;;;3.22;1.15;;;;;27.70;101823.00;;;;5007704;28;20205;-83
2023/07/18 09:36:57;;;;;;;1.77;0.98;;;;;27.80;101827.00;;;;5007600;28;21174;-85
2023/07/18 09:39:27;;;;;;;3.58;1.10;;;;;27.80;101826.00;;;;5008206;28;20201;-83
2023/07/18 09:41:55;;;;;;;5.63;1.08;;;;;27.90;101823.00;;;;5007824;28;20809;-82
2023/07/18 09:44:24;;;;;;;1.70;0.93;;;;;27.90;101814.00;;;;5007493;28;20197;-82
2023/07/18 09:46:52;;;;;;;2.20;1.13;;;;;28.00;101816.00;;;;5008218;28;20275;-83
2023/07/18 09:49:20;;;;;;;2.72;0.90;;;;;28.00;101815.00;;;;5007176;28;20749;-83
2023/07/18 09:51:52;;;;;;;5.50;1.20;;;;;28.00;101807.00;;;;5008461;28;20205;-84
2023/07/18 09:54:21;;;;;;;3.22;1.05;;;;;28.10;101815.00;;;;5006584;28;20714;-84
2023/07/18 09:56:52;;;;;;;9.52;1.70;;;;;28.20;101809.00;;;;5008131;28;20193;-85
2023/07/18 09:59:21;;;;;;;2.38;1.08;;;;;28.20;101804.00;;;;5006796;28;20263;-82
2023/07/18 10:01:51;;;;;;;7.15;1.30;;;;;28.30;101802.00;;;;5007826;28;20324;-84
2023/07/18 10:04:21;;;;;;;3.92;0.90;;;;;28.40;101806.00;;;;5007415;28;20284;-84
2023/07/18 10:06:50;;;;;;;2.20;1.20;;;;;28.50;101802.00;;;;5007647;28;20671;-84
2023/07/18 10:09:17;;;;;;;3.53;1.25;;;;;28.60;101813.00;;;;5007561;28;20328;-83
2023/07/18 10:12:13;;;;;;;3.80;0.90;;;;;28.50;101798.00;;;;5011270;28;20205;-84
2023/07/18 10:14:56;;;;;;;2.10;0.85;;;;;28.60;101798.00;;;;4974187;28;20202;-84
2023/07/18 10:17:28;;;;;;;4.22;1.00;;;;;28.80;101796.00;;;;4990923;28;20285;-85
2023/07/18 10:19:56;;;;;;;3.92;1.23;;;;;28.80;101795.00;;;;4992331;28;20201;-85
2023/07/18 10:22:27;;;;;;;2.63;1.00;;;;;28.80;101793.00;;;;4991413;28;20202;-84
2023/07/18 10:25:00;;;;;;;2.90;0.77;;;;;28.80;101792.00;;;;5008342;28;20213;-85
2023/07/18 10:27:37;;;;;;;2.85;0.90;;;;;28.70;101787.00;;;;5010706;28;20647;-83
2023/07/18 10:30:06;;;;;;;2.20;0.90;;;;;28.70;101781.00;;;;5009961;28;20279;-83
2023/07/18 10:32:33;;;;;;;1.83;0.77;;;;;28.80;101780.00;;;;5010828;28;20201;-84
2023/07/18 10:35:06;;;;;;;3.17;1.08;;;;;28.80;101775.00;;;;5010728;28;20239;-84
2023/07/18 10:37:33;;;;;;;2.47;0.82;;;;;28.80;101775.00;;;;5011185;28;20834;-84
2023/07/18 10:40:01;;;;;;;1.85;0.90;;;;;28.90;101760.00;;;;5010366;28;20530;-84
2023/07/18 10:42:30;;;;;;;1.75;0.73;;;;;28.90;101767.00;;;;5010427;28;20562;-83
2023/07/18 10:45:01;;;;;;;5.22;0.80;;;;;29.00;101761.00;;;;5010951;28;20193;-84
2023/07/18 10:47:28;;;;;;;1.35;0.70;;;;;29.10;101765.00;;;;5010397;28;20671;-83
2023/07/18 10:49:56;;;;;;;2.10;0.88;;;;;29.10;101766.00;;;;5010299;28;20229;-84
2023/07/18 10:52:24;;;;;;;1.15;0.47;;;;;29.20;101763.00;;;;5010313;28;20690;-81
2023/07/18 10:54:55;;;;;;;1.23;0.70;;;;;29.20;101752.00;;;;5010082;28;20197;-82
2023/07/18 10:57:32;;;;;;;1.15;0.70;;;;;29.20;101752.00;;;;5009619;28;20220;-81
2023/07/18 11:00:03;;;;;;;1.67;0.77;;;;;29.30;101743.00;;;;5009601;28;20245;-81
2023/07/18 11:02:37;;;;;;;1.73;0.90;;;;;29.30;101747.00;;;;5010472;28;20205;-81
2023/07/18 11:05:10;;;;;;;1.40;0.88;;;;;29.40;101750.00;;;;5009902;28;20236;-82
2023/07/18 11:07:39;;;;;;;1.40;0.75;;;;;29.50;101743.00;;;;5010267;28;20250;-84
2023/07/18 11:10:07;;;;;;;1.35;0.60;;;;;29.60;101741.00;;;;5010121;28;20606;-84
2023/07/18 11:12:35;;;;;;;1.50;0.90;;;;;29.60;101741.00;;;;5009535;28;20217;-84
2023/07/18 11:15:05;;;;;;;3.00;0.98;;;;;29.60;101741.00;;;;5010271;28;20678;-84
2023/07/18 11:17:33;;;;;;;1.75;1.00;;;;;29.70;101738.00;;;;5010231;28;20212;-82
2023/07/18 11:20:02;;;;;;;3.00;1.05;;;;;29.70;101746.00;;;;5010645;28;20659;-82
2023/07/18 11:22:30;;;;;;;3.38;1.30;;;;;29.70;101747.00;;;;5008624;28;20220;-83
2023/07/18 11:24:59;;;;;;;1.95;0.93;;;;;29.60;101752.00;;;;5009718;28;20575;-82
2023/07/18 11:27:27;;;;;;;2.22;0.73;;;;;29.60;101739.00;;;;5010209;28;20201;-83
2023/07/18 11:29:58;;;;;;;1.45;0.88;;;;;29.60;101730.00;;;;5010220;28;20237;-83
2023/07/18 11:32:38;;;;;;;5.13;1.33;;;;;29.50;101723.00;;;;4996337;28;20206;-83
2023/07/18 11:35:08;;;;;;;2.45;0.80;;;;;29.60;101720.00;;;;4987771;28;20194;-83
2023/07/18 11:37:36;;;;;;;3.50;1.10;;;;;29.70;101712.00;;;;4990147;28;20557;-83
2023/07/18 11:40:03;;;;;;;2.00;1.38;;;;;29.70;101716.00;;;;4989662;28;20210;-83
2023/07/18 11:42:48;;;;;;;2.03;1.23;;;;;29.60;101725.00;;;;4989895;28;20209;-84
2023/07/18 11:45:18;;;;;;;3.70;1.60;;;;;29.80;101719.00;;;;4989272;28;20300;-83
2023/07/18 11:47:47;;;;;;;3.05;0.90;;;;;29.80;101721.00;;;;4990411;28;20209;-82
2023/07/18 11:50:15;;;;;;;2.65;1.13;;;;;29.80;101711.00;;;;4990347;28;20543;-82
2023/07/18 11:52:46;;;;;;;2.65;1.10;;;;;29.90;101709.00;;;;5003914;28;20209;-84
2023/07/18 11:55:13;;;;;;;3.28;1.00;;;;;29.90;101714.00;;;;5009367;28;20584;-84
2023/07/18 11:57:41;;;;;;;2.00;0.80;;;;;29.90;101710.00;;;;5008646;28;20241;-82
2023/07/18 12:00:10;;;;;;;2.60;0.68;;;;;30.00;101716.00;;;;5008970;28;20228;-83
2023/07/18 12:02:37;;;;;;;1.50;0.73;;;;;30.00;101706.00;;;;5008671;28;20576;-82
2023/07/18 12:05:07;;;;;;;1.00;0.73;;;;;30.00;101699.00;;;;5009305;28;20766;-82
2023/07/18 12:07:35;;;;;;;2.88;0.95;;;;;30.00;101695.00;;;;5009502;28;20204;-83
2023/07/18 12:10:02;;;;;;;2.08;0.73;;;;;30.00;101690.00;;;;5008568;28;20225;-82
2023/07/18 12:12:30;;;;;;;1.20;0.50;;;;;30.10;101701.00;;;;5008787;28;20200;-83
2023/07/18 12:14:57;;;;;;;0.50;0.40;;;;;30.10;101697.00;;;;5009379;28;20212;-83